Carneys Point Township, New Jersey
Current Conditions -  °F | °C
As of 7:51 PM on Tuesday 21 Oct 2014 (Local Time) from KILG Reporting Station
Few Clouds Few Clouds  
Wind Chill: 13°   Ceiling: Unl
Heat Index: 13°   Visibility: 10mi
Dew Point: 12°   Wind: 6mph
Humidity: 90%   Direction: 340°NNW
Pressure: 29.85"   Gusts: NA
Location:  39.6981°N, 75.4502°W
Report Text: KILG 212351Z 34005KT 10SM FEW060 13/12 A2985 RMK AO2 SLP107 T01330117 10217 20128 51012
Loading
Personal Weather Stations






























Interactive Weather Map
Tropical Storm Tracking
New forecast layout! Learn more

10-Day Weather Forecast

Advertisements
Track Severe Weather on mobile